createdAt,value
2018-07-16T04:10:15.483Z,79.83
2018-07-16T04:10:40.980Z,80.03
2018-07-16T04:11:06.472Z,79.93
2018-07-16T04:11:31.914Z,79.74
2018-07-16T04:11:57.450Z,79.93
2018-07-16T04:12:22.965Z,80.03
2018-07-16T04:12:48.378Z,80.12
2018-07-16T04:13:13.902Z,79.93
2018-07-16T04:13:39.352Z,79.93
2018-07-16T04:14:04.794Z,80.03
2018-07-16T04:14:30.280Z,79.83
2018-07-16T04:14:55.852Z,80.03
2018-07-16T04:15:21.316Z,80.22
2018-07-16T04:15:46.710Z,80.41
2018-07-16T04:16:12.244Z,80.32
2018-07-16T04:16:37.686Z,80.03
2018-07-16T04:17:03.167Z,80.12
2018-07-16T04:17:28.668Z,80.32
2018-07-16T04:17:54.151Z,80.03
2018-07-16T04:18:19.626Z,80.12
2018-07-16T04:18:45.049Z,80.32
2018-07-16T04:19:10.482Z,80.12
2018-07-16T04:19:35.990Z,80.41
2018-07-16T04:20:01.440Z,80.6
2018-07-16T04:20:26.970Z,80.6
2018-07-16T04:20:52.431Z,80.03
2018-07-16T04:21:17.900Z,80.22
2018-07-16T04:21:43.415Z,80.12
2018-07-16T04:22:08.822Z,80.03
2018-07-16T04:22:34.306Z,80.12
2018-07-16T04:22:59.794Z,80.03
2018-07-16T04:23:25.269Z,80.03
2018-07-16T04:23:50.705Z,80.41
2018-07-16T04:24:16.203Z,80.22
2018-07-16T04:24:41.656Z,80.32
2018-07-16T04:25:07.099Z,80.22
2018-07-16T04:25:32.567Z,80.03
2018-07-16T04:25:58.017Z,80.12
2018-07-16T04:26:23.506Z,79.93
2018-07-16T04:26:48.946Z,80.22
2018-07-16T04:27:14.371Z,80.32
2018-07-16T04:27:39.889Z,80.22
2018-07-16T04:28:05.336Z,79.93
2018-07-16T04:28:30.793Z,80.32
2018-07-16T04:28:56.275Z,80.12
2018-07-16T04:29:21.733Z,80.03
2018-07-16T04:29:47.174Z,80.03
2018-07-16T04:30:12.719Z,80.32
2018-07-16T04:30:38.164Z,80.41
2018-07-16T04:31:03.725Z,80.79
2018-07-16T04:31:29.125Z,79.93
2018-07-16T04:31:54.666Z,80.79
2018-07-16T04:32:20.114Z,79.93
2018-07-16T04:32:45.613Z,79.93
2018-07-16T04:33:11.104Z,79.55
2018-07-16T04:33:36.554Z,80.12
2018-07-16T04:34:02.037Z,80.12
2018-07-16T04:34:27.487Z,80.64
2018-07-16T04:34:52.949Z,80.12
2018-07-16T04:35:18.389Z,80.12
2018-07-16T04:35:43.843Z,80.07
2018-07-16T04:36:09.339Z,80.07
2018-07-16T04:36:34.920Z,79.97
2018-07-16T04:37:00.316Z,80.07
2018-07-16T04:37:25.864Z,79.68
2018-07-16T04:37:51.293Z,79.88
2018-07-16T04:38:16.766Z,79.68
2018-07-16T04:38:42.266Z,79.39
2018-07-16T04:39:45.929Z,79.78
2018-07-16T04:40:11.418Z,79.78
2018-07-16T04:40:36.899Z,79.21
2018-07-16T04:41:02.390Z,79.59
2018-07-16T04:41:27.896Z,79.3
2018-07-16T04:41:53.382Z,79.34
2018-07-16T04:42:18.860Z,78.86
2018-07-16T04:42:44.391Z,78.77
2018-07-16T04:43:09.868Z,78.77
2018-07-16T04:43:35.392Z,78.47
2018-07-16T04:44:00.898Z,77.8
2018-07-16T04:44:26.404Z,77.56
2018-07-16T04:44:51.928Z,77.08
2018-07-16T04:45:17.427Z,77.46
2018-07-16T04:45:42.905Z,77.26
2018-07-16T04:46:08.419Z,76.12
2018-07-16T04:46:33.919Z,76.92
2018-07-16T04:46:59.422Z,76.06
2018-07-16T04:47:24.912Z,75.57
2018-07-16T04:47:50.412Z,76.15
2018-07-16T04:48:15.893Z,75.29
2018-07-16T04:48:41.402Z,75.13
2018-07-16T04:49:06.888Z,74.65
2018-07-16T04:49:32.365Z,74.65
2018-07-16T04:49:57.857Z,74.27
2018-07-16T04:50:23.380Z,73.69
2018-07-16T04:50:48.864Z,74.27
2018-07-16T04:51:14.349Z,73.44
2018-07-16T04:51:39.826Z,73.92
2018-07-16T04:52:05.334Z,73.54
2018-07-16T04:52:30.837Z,72.86
2018-07-16T04:52:56.323Z,72.96
2018-07-16T04:53:21.831Z,72.58
2018-07-16T04:53:47.334Z,72.77
2018-07-16T04:54:12.797Z,72.38
2018-07-16T04:54:38.296Z,72.19
2018-07-16T04:55:03.794Z,72.48
2018-07-16T04:55:29.315Z,71.81
2018-07-16T04:55:54.783Z,72.03
2018-07-16T04:56:20.480Z,72.13
2018-07-16T04:56:45.795Z,71.36
2018-07-16T04:57:11.298Z,71.55
2018-07-16T04:57:36.774Z,71.46
2018-07-16T04:58:02.322Z,71.55
2018-07-16T04:58:27.827Z,71.17
2018-07-16T04:58:53.284Z,70.98
2018-07-16T04:59:18.785Z,70.5
2018-07-16T04:59:44.305Z,70.5
2018-07-16T05:00:09.804Z,70.78
2018-07-16T05:01:19.566Z,70.82
2018-07-16T05:01:45.051Z,71.11
2018-07-16T05:02:10.550Z,70.92
2018-07-16T05:02:36.037Z,70.43
2018-07-16T05:03:01.552Z,70.43
2018-07-16T05:03:27.048Z,70.72
2018-07-16T05:03:52.591Z,70.34
2018-07-16T05:04:18.062Z,70.15
2018-07-16T05:05:11.505Z,70.43
2018-07-16T05:05:36.991Z,70.24
2018-07-16T05:06:02.470Z,70.43
2018-07-16T05:06:27.968Z,70.15
2018-07-16T05:06:53.492Z,70.15
2018-07-16T05:07:18.964Z,70.05
2018-07-16T05:07:44.490Z,69.85
2018-07-16T05:08:10.013Z,69.76
2018-07-16T05:08:35.521Z,69.57
2018-07-16T05:09:01.056Z,69.47
2018-07-16T05:09:26.580Z,69.47
2018-07-16T05:09:52.104Z,69.76
2018-07-16T05:10:17.604Z,69.38
2018-07-16T05:10:43.085Z,69.76
2018-07-16T05:11:08.580Z,69.85
2018-07-16T05:11:34.061Z,69.47
2018-07-16T05:11:59.549Z,69.38
2018-07-16T05:12:25.038Z,68.9
2018-07-16T05:12:50.547Z,68.99
2018-07-16T05:13:16.034Z,69.09
2018-07-16T05:13:41.566Z,68.99
2018-07-16T05:14:07.069Z,68.6
2018-07-16T05:14:32.551Z,68.8
2018-07-16T05:14:58.055Z,68.7
2018-07-16T05:15:23.592Z,68.8
2018-07-16T05:15:49.125Z,68.99
2018-07-16T05:16:14.592Z,69.09
2018-07-16T05:16:40.097Z,68.99
2018-07-16T05:17:05.599Z,68.9
2018-07-16T05:17:31.061Z,69.09
2018-07-16T05:17:56.576Z,69.38
2018-07-16T05:18:22.210Z,69.47
2018-07-16T05:18:47.586Z,68.9
2018-07-16T05:19:13.064Z,68.9
2018-07-16T05:19:38.550Z,68.99
2018-07-16T05:20:04.073Z,68.99
2018-07-16T05:21:18.004Z,68.6
2018-07-16T05:21:43.453Z,68.51
2018-07-16T05:22:08.950Z,68.6
2018-07-16T05:22:34.437Z,68.41
2018-07-16T05:22:59.918Z,68.7
2018-07-16T05:23:25.430Z,68.41
2018-07-16T05:23:50.911Z,68.51
2018-07-16T05:24:16.409Z,68.6
2018-07-16T05:24:41.892Z,68.84
2018-07-16T05:25:07.386Z,68.8
2018-07-16T05:25:32.901Z,68.6
2018-07-16T05:25:58.421Z,68.54
2018-07-16T05:26:23.910Z,68.54
2018-07-16T05:26:49.400Z,68.84
2018-07-16T05:27:14.891Z,68.74
2018-07-16T05:27:40.382Z,68.54
2018-07-16T05:28:05.891Z,68.35
2018-07-16T05:28:31.418Z,68.35
2018-07-16T05:28:56.913Z,68.44
2018-07-16T05:29:22.407Z,68.84
2018-07-16T05:29:47.931Z,68.35
2018-07-16T05:30:13.411Z,67.97
2018-07-16T05:30:38.921Z,67.97
2018-07-16T05:31:04.438Z,67.68
2018-07-16T05:31:30.026Z,67.97
2018-07-16T05:31:55.684Z,67.49
2018-07-16T05:32:21.084Z,67.68
2018-07-16T05:32:46.699Z,67.19
2018-07-16T05:33:11.945Z,67.87
2018-07-16T05:33:37.440Z,67.87
2018-07-16T05:34:02.936Z,67.29
2018-07-16T05:34:28.447Z,67.29
2018-07-16T05:34:53.944Z,67.39
2018-07-16T05:35:19.469Z,66.94
2018-07-16T05:35:44.916Z,66.75
2018-07-16T05:36:10.409Z,67.23
2018-07-16T05:36:35.869Z,66.85
2018-07-16T05:37:01.389Z,67.13
2018-07-16T05:37:26.873Z,66.85
2018-07-16T05:37:52.398Z,66.46
2018-07-16T05:38:17.959Z,66.65
2018-07-16T05:38:43.427Z,66.55
2018-07-16T05:39:08.903Z,66.55
2018-07-16T05:39:34.436Z,66.75
2018-07-16T05:39:59.946Z,65.88
2018-07-16T05:40:25.389Z,65.98
2018-07-16T05:40:51.024Z,65.88
2018-07-16T05:41:16.535Z,65.98
2018-07-16T05:41:41.993Z,65.98
2018-07-16T05:42:07.498Z,65.98
2018-07-16T05:42:32.993Z,66.07
2018-07-16T05:42:58.465Z,65.98
2018-07-16T05:43:24.057Z,65.69
2018-07-16T05:43:49.650Z,65.4
2018-07-16T05:44:15.100Z,65.5
2018-07-16T05:44:40.578Z,65.3
2018-07-16T05:45:06.043Z,65.11
2018-07-16T05:45:31.548Z,65.24
2018-07-16T05:45:57.044Z,65.11
2018-07-16T05:46:22.528Z,65.33
2018-07-16T05:46:48.048Z,65.33
2018-07-16T05:47:13.540Z,65.24
2018-07-16T05:47:39.023Z,65.24
2018-07-16T05:48:04.517Z,65.24
2018-07-16T05:48:30.005Z,65.24
2018-07-16T05:48:55.475Z,65.14
2018-07-16T05:49:20.954Z,64.56
2018-07-16T05:49:46.451Z,64.08
2018-07-16T05:50:11.978Z,64.66
2018-07-16T05:50:37.463Z,64.76
2018-07-16T05:51:02.937Z,64.56
2018-07-16T05:51:28.433Z,64.37
2018-07-16T05:51:53.935Z,64.56
2018-07-16T05:52:19.434Z,64.56
2018-07-16T05:52:44.933Z,64.18
2018-07-16T05:53:10.395Z,64.28
2018-07-16T05:53:35.896Z,64.31
2018-07-16T05:54:01.395Z,64.08
2018-07-16T05:54:26.868Z,63.89
2018-07-16T05:54:52.328Z,63.82
2018-07-16T05:55:17.854Z,63.92
2018-07-16T05:55:43.328Z,63.44
2018-07-16T05:56:08.836Z,63.5
2018-07-16T05:56:34.321Z,63.82
2018-07-16T05:56:59.847Z,63.54
2018-07-16T05:57:25.371Z,63.82
2018-07-16T05:57:50.881Z,64.11
2018-07-16T05:58:16.385Z,63.82
2018-07-16T05:58:41.886Z,63.82
2018-07-16T05:59:07.395Z,64.31
2018-07-16T05:59:32.880Z,63.95
2018-07-16T05:59:58.384Z,63.54
2018-07-16T06:00:23.860Z,63.54
2018-07-16T06:00:49.346Z,63.44
2018-07-16T06:01:14.819Z,63.47
2018-07-16T06:01:40.317Z,63.57
2018-07-16T06:02:05.885Z,63.47
2018-07-16T06:02:31.367Z,63.67
2018-07-16T06:02:56.853Z,62.89
2018-07-16T06:03:22.340Z,62.6
2018-07-16T06:03:47.828Z,62.02
2018-07-16T06:04:13.349Z,62.12
2018-07-16T06:04:38.823Z,62.22
2018-07-16T06:05:04.326Z,62.22
2018-07-16T06:05:29.829Z,62.7
2018-07-16T06:05:55.310Z,62.51
2018-07-16T06:06:20.809Z,62.41
2018-07-16T06:06:46.307Z,62.51
2018-07-16T06:07:11.822Z,63.09
2018-07-16T06:07:37.336Z,62.73
2018-07-16T06:08:02.834Z,63.02
2018-07-16T06:08:28.311Z,62.44
2018-07-16T06:08:53.972Z,62.73
2018-07-16T06:09:19.333Z,62.05
2018-07-16T06:09:44.851Z,61.96
2018-07-16T06:10:10.370Z,61.67
2018-07-16T06:10:35.879Z,61.96
2018-07-16T06:11:01.380Z,61.67
2018-07-16T06:11:27.683Z,61.8
2018-07-16T06:11:53.163Z,62.34
2018-07-16T06:12:18.628Z,62.28
2018-07-16T06:12:44.112Z,62.18
2018-07-16T06:13:09.566Z,61.22
2018-07-16T06:13:35.067Z,60.93
2018-07-16T06:14:00.551Z,59.77
2018-07-16T06:14:26.128Z,59.48
2018-07-16T06:14:51.536Z,59.19
2018-07-16T06:15:17.025Z,59
2018-07-16T06:15:42.556Z,58.9
2018-07-16T06:16:08.056Z,58.51
2018-07-16T06:16:33.539Z,58.51
2018-07-16T06:16:59.032Z,59.38
2018-07-16T06:17:24.541Z,59.28
2018-07-16T06:17:50.079Z,59.28
2018-07-16T06:18:15.561Z,58.51
2018-07-16T06:18:41.133Z,58.7
2018-07-16T06:19:06.596Z,58.51
2018-07-16T06:19:32.103Z,59
2018-07-16T06:19:57.581Z,58.42
2018-07-16T06:20:23.066Z,59
2018-07-16T06:20:48.555Z,58.9
2018-07-16T06:21:14.031Z,58.8
2018-07-16T06:21:39.534Z,58.51
2018-07-16T06:22:05.039Z,58.61
2018-07-16T06:22:30.543Z,58.7
2018-07-16T06:22:56.052Z,58.7
2018-07-16T06:23:21.556Z,59.28
2018-07-16T06:23:47.051Z,59.09
2018-07-16T06:24:12.605Z,58.32
2018-07-16T06:24:38.093Z,58.9
2018-07-16T06:25:03.612Z,58.32
2018-07-16T06:25:29.127Z,57.84
2018-07-16T06:25:54.646Z,58.03
2018-07-16T06:26:20.135Z,58.12
2018-07-16T06:26:45.930Z,58.7
2018-07-16T06:27:11.444Z,58.61
2018-07-16T06:27:36.943Z,59
2018-07-16T06:28:02.422Z,58.51
2018-07-16T06:28:27.917Z,58.7
2018-07-16T06:29:41.727Z,58.54
2018-07-16T06:30:07.222Z,58.06
2018-07-16T06:30:32.709Z,58.64
2018-07-16T06:30:58.251Z,58.93
2018-07-16T06:31:23.740Z,58.83
2018-07-16T06:31:49.225Z,58.73
2018-07-16T06:32:14.723Z,57.96
2018-07-16T06:32:40.228Z,57.77
2018-07-16T06:33:05.714Z,57.87
2018-07-16T06:33:31.191Z,57.87
2018-07-16T06:33:56.709Z,57.67
2018-07-16T06:34:22.218Z,57.96
2018-07-16T06:34:47.695Z,57.87
2018-07-16T06:35:13.218Z,57.96
2018-07-16T06:35:38.733Z,57.67
2018-07-16T06:36:04.215Z,56.9
2018-07-16T06:36:29.742Z,56.71
2018-07-16T06:36:55.255Z,56.8
2018-07-16T06:37:20.759Z,56.71
2018-07-16T06:37:46.246Z,56.13
2018-07-16T06:38:11.764Z,56.13
2018-07-16T06:38:37.264Z,56.8
2018-07-16T06:39:02.753Z,56.9
2018-07-16T06:39:28.301Z,56.8
2018-07-16T06:39:53.835Z,57.29
2018-07-16T06:40:19.453Z,57.19
2018-07-16T06:40:44.989Z,57.96
2018-07-16T06:41:10.666Z,57.57
2018-07-16T06:41:36.279Z,57.77
2018-07-16T06:42:01.267Z,57.48
2018-07-16T06:42:26.763Z,57.48
2018-07-16T06:42:52.256Z,57.77
2018-07-16T06:43:17.770Z,57.41
2018-07-16T06:43:43.269Z,57.51
2018-07-16T06:44:08.777Z,57.41
2018-07-16T06:44:34.284Z,57.12
2018-07-16T06:44:59.784Z,56.93
2018-07-16T06:45:25.270Z,56.73
2018-07-16T06:45:50.760Z,57.03
2018-07-16T06:46:16.297Z,56.15
2018-07-16T06:46:41.774Z,56.05
2018-07-16T06:47:07.263Z,56.05
2018-07-16T06:47:32.729Z,56.05
2018-07-16T06:47:58.263Z,56.05
2018-07-16T06:48:23.763Z,56.35
2018-07-16T06:48:49.244Z,56.05
2018-07-16T06:49:14.764Z,55.89
2018-07-16T06:49:40.249Z,54.71
2018-07-16T06:50:05.718Z,55.47
2018-07-16T06:50:31.213Z,55.38
2018-07-16T06:50:56.711Z,55.47
2018-07-16T06:51:22.197Z,55.77
2018-07-16T06:51:47.695Z,55.47
2018-07-16T06:52:13.164Z,55.38
2018-07-16T06:52:38.693Z,55.57
2018-07-16T06:53:04.174Z,55.19
2018-07-16T06:53:29.679Z,55.77
2018-07-16T06:53:55.192Z,55.87
2018-07-16T06:54:20.707Z,55.96
2018-07-16T06:54:46.220Z,55.79
2018-07-16T06:55:11.744Z,55.79
2018-07-16T06:55:37.191Z,55.79
2018-07-16T06:56:02.689Z,55.89
2018-07-16T06:56:28.216Z,55.89
2018-07-16T06:56:53.706Z,56.28
2018-07-16T06:57:19.197Z,56.11
2018-07-16T06:57:44.672Z,56.11
2018-07-16T06:58:10.179Z,55.92
2018-07-16T06:58:35.661Z,55.53
2018-07-16T06:59:01.139Z,55.34
2018-07-16T06:59:26.644Z,55.43
2018-07-16T06:59:52.112Z,54.37
2018-07-16T07:00:17.582Z,54.37
2018-07-16T07:00:43.093Z,54.37
2018-07-16T07:01:08.558Z,54.17
2018-07-16T07:01:34.048Z,55.15
2018-07-16T07:01:59.560Z,54.95
2018-07-16T07:02:25.130Z,55.24
2018-07-16T07:02:50.581Z,55.17
2018-07-16T07:03:16.076Z,54.88
2018-07-16T07:03:41.587Z,54.98
2018-07-16T07:04:07.093Z,54.49
2018-07-16T07:04:32.635Z,54.3
2018-07-16T07:04:58.135Z,54.21
2018-07-16T07:05:23.655Z,54.3
2018-07-16T07:05:49.265Z,53.43
2018-07-16T07:06:14.760Z,53.14
2018-07-16T07:06:40.219Z,53.04
2018-07-16T07:07:05.763Z,53.14
2018-07-16T07:07:31.251Z,53.33
2018-07-16T07:07:56.770Z,53.45
2018-07-16T07:08:22.266Z,53.04
2018-07-16T07:08:47.749Z,52.17
2018-07-16T07:09:13.229Z,52.85
2018-07-16T07:09:38.763Z,53.23
2018-07-16T07:10:04.295Z,53.23
2018-07-16T07:10:29.745Z,53.04
2018-07-16T07:10:55.269Z,53.23
2018-07-16T07:11:20.780Z,52.92
2018-07-16T07:11:46.247Z,53.21
2018-07-16T07:12:11.744Z,53.59
2018-07-16T07:12:37.265Z,53.89
2018-07-16T07:13:02.738Z,53.59
2018-07-16T07:13:28.224Z,53.31
2018-07-16T07:13:53.745Z,54.08
2018-07-16T07:14:19.265Z,53.99
2018-07-16T07:14:44.749Z,54.08
2018-07-16T07:15:10.259Z,54.17
2018-07-16T07:15:35.755Z,54.08
2018-07-16T07:16:01.248Z,54.57
2018-07-16T07:16:26.742Z,53.89
2018-07-16T07:16:52.292Z,53.59
2018-07-16T07:17:17.755Z,53.21
2018-07-16T07:17:43.224Z,53.11
2018-07-16T07:18:08.793Z,53.11
2018-07-16T07:18:34.287Z,54.27
2018-07-16T07:18:59.798Z,54.01
2018-07-16T07:19:25.265Z,54.21
2018-07-16T07:19:50.770Z,53.63
2018-07-16T07:20:16.274Z,53.14
2018-07-16T07:20:41.781Z,53.14
2018-07-16T07:21:07.272Z,53.14
2018-07-16T07:21:32.778Z,52.97
2018-07-16T07:21:58.293Z,52.49
2018-07-16T07:22:23.757Z,51.81
2018-07-16T07:22:49.323Z,51.9
2018-07-16T07:23:14.819Z,52.58
2018-07-16T07:23:40.381Z,52.78
2018-07-16T07:24:05.875Z,52.78
2018-07-16T07:24:31.389Z,52.51
2018-07-16T07:24:56.847Z,52.8
2018-07-16T07:25:22.340Z,52.22
2018-07-16T07:25:47.833Z,51.64
2018-07-16T07:26:13.339Z,51.93
2018-07-16T07:26:38.798Z,51.84
2018-07-16T07:27:04.301Z,51.57
2018-07-16T07:27:29.757Z,51.57
2018-07-16T07:27:55.248Z,51.86
2018-07-16T07:28:20.713Z,51.37
2018-07-16T07:28:46.245Z,50.79
2018-07-16T07:29:11.744Z,50.41
2018-07-16T07:29:37.250Z,49.63
2018-07-16T07:30:02.742Z,49.63
2018-07-16T07:30:28.242Z,48.85
2018-07-16T07:30:53.720Z,48.85
2018-07-16T07:31:19.226Z,49.05
2018-07-16T07:31:44.745Z,49.44
2018-07-16T07:32:10.187Z,49.66
2018-07-16T07:32:35.722Z,49.34
2018-07-16T07:33:01.224Z,49.56
2018-07-16T07:33:26.718Z,48.37
2018-07-16T07:33:52.251Z,48.59
2018-07-16T07:34:17.758Z,48.39
2018-07-16T07:34:43.260Z,48.49
2018-07-16T07:35:08.804Z,48.97
2018-07-16T07:35:34.348Z,48.39
2018-07-16T07:35:59.775Z,47.23
2018-07-16T07:36:25.258Z,47.03
2018-07-16T07:36:50.751Z,47.11
2018-07-16T07:37:16.282Z,47.2
2018-07-16T07:37:41.777Z,47.3
2018-07-16T07:38:07.274Z,47.6
2018-07-16T07:38:32.771Z,47.4
2018-07-16T07:38:58.272Z,47.4
2018-07-16T07:39:23.763Z,47.3
2018-07-16T07:39:49.407Z,48.27
2018-07-16T07:40:14.943Z,48.37
2018-07-16T07:40:40.443Z,47.69
2018-07-16T07:41:06.142Z,47.79
2018-07-16T07:41:31.768Z,47.5
2018-07-16T07:41:57.152Z,48.08
2018-07-16T07:42:22.666Z,48.08
2018-07-16T07:42:48.148Z,47.57
2018-07-16T07:43:13.689Z,47.57
2018-07-16T07:43:39.116Z,48.74
2018-07-16T07:44:04.629Z,48.25
2018-07-16T07:44:30.101Z,48.37
2018-07-16T07:44:55.601Z,48.44
2018-07-16T07:45:21.121Z,48.64
2018-07-16T07:45:46.628Z,48.93
2018-07-16T07:46:12.127Z,48.47
2018-07-16T07:46:37.623Z,48.66
2018-07-16T07:47:03.124Z,49.44
2018-07-16T07:47:28.654Z,48.66
2018-07-16T07:47:54.142Z,48.95
2018-07-16T07:48:19.667Z,48.47
2018-07-16T07:48:45.153Z,48.27
2018-07-16T07:49:10.655Z,48.37
2018-07-16T07:49:36.126Z,48.37
2018-07-16T07:50:01.624Z,48.27
2018-07-16T07:50:27.140Z,47.5
2018-07-16T07:50:52.623Z,47.3
2018-07-16T07:51:18.107Z,47.5
2018-07-16T07:51:43.578Z,47.69
2018-07-16T07:52:09.097Z,48.57
2018-07-16T07:52:34.605Z,48.27
2018-07-16T07:53:00.102Z,47.69
2018-07-16T07:53:25.615Z,47.5
2018-07-16T07:53:51.131Z,47.79
2018-07-16T07:54:16.773Z,47.13
2018-07-16T07:54:42.304Z,47.81
2018-07-16T07:55:08.039Z,47.4
2018-07-16T07:55:33.153Z,47.62
2018-07-16T07:55:58.617Z,47.69
2018-07-16T07:56:24.140Z,48.27
2018-07-16T07:56:49.633Z,47.3
2018-07-16T07:57:15.154Z,47.79
2018-07-16T07:57:40.642Z,47.33
2018-07-16T07:58:06.156Z,47.72
2018-07-16T07:58:31.622Z,47.62
2018-07-16T07:58:57.171Z,47.81
2018-07-16T07:59:22.642Z,47.52
2018-07-16T07:59:48.158Z,47.23
2018-07-16T08:00:13.656Z,47.81
2018-07-16T08:00:39.160Z,47.42
2018-07-16T08:01:04.717Z,46.75
2018-07-16T08:01:30.352Z,46.84
2018-07-16T08:01:55.845Z,46.55
2018-07-16T08:02:21.333Z,45.78
2018-07-16T08:02:46.826Z,46.16
2018-07-16T08:03:12.355Z,46.55
2018-07-16T08:03:37.814Z,47.23
2018-07-16T08:04:03.314Z,47.23
2018-07-16T08:04:28.810Z,47.23
2018-07-16T08:04:54.304Z,47.33
2018-07-16T08:05:19.830Z,46.94
2018-07-16T08:05:45.302Z,47.42
2018-07-16T08:06:10.758Z,47.33
2018-07-16T08:06:36.282Z,47.23
2018-07-16T08:07:01.734Z,47.25
2018-07-16T08:07:27.235Z,46.84
2018-07-16T08:07:52.743Z,47.23
2018-07-16T08:08:18.243Z,47.03
2018-07-16T08:08:43.735Z,47.42
2018-07-16T08:09:09.255Z,47.42
2018-07-16T08:09:34.775Z,47.55
2018-07-16T08:10:00.261Z,47.45
2018-07-16T08:10:25.751Z,47.74
2018-07-16T08:10:51.246Z,47.45
2018-07-16T08:11:16.755Z,47.45
2018-07-16T08:11:42.241Z,47.06
2018-07-16T08:12:07.751Z,47.25
2018-07-16T08:12:33.505Z,47.64
2018-07-16T08:12:58.976Z,47.96
2018-07-16T08:13:24.479Z,47.08
2018-07-16T08:13:50.072Z,46.89
2018-07-16T08:14:15.546Z,46.11
2018-07-16T08:14:41.059Z,46.21
2018-07-16T08:15:06.535Z,45.72
2018-07-16T08:15:32.049Z,45.43
2018-07-16T08:15:57.532Z,45.82
2018-07-16T08:16:23.004Z,46.19
2018-07-16T08:16:48.491Z,46.31
2018-07-16T08:17:13.997Z,45.7
2018-07-16T08:17:39.479Z,45.7
2018-07-16T08:18:04.991Z,45.61
2018-07-16T08:18:30.490Z,45.51
2018-07-16T08:18:55.984Z,45.31
2018-07-16T08:19:21.454Z,45.61
2018-07-16T08:19:46.980Z,45.8
2018-07-16T08:20:12.479Z,45.8
2018-07-16T08:20:38.021Z,45.99
2018-07-16T08:21:03.491Z,46.58
2018-07-16T08:21:29.000Z,46.86
2018-07-16T08:21:54.530Z,46.11
2018-07-16T08:22:20.100Z,45.62
2018-07-16T08:22:45.597Z,45.82
2018-07-16T08:23:11.093Z,45.92
2018-07-16T08:23:36.596Z,45.7
2018-07-16T08:24:02.114Z,45.43
2018-07-16T08:24:27.618Z,45.14
2018-07-16T08:24:53.098Z,45.43
2018-07-16T08:25:18.598Z,45.04
2018-07-16T08:25:44.061Z,45.34
2018-07-16T08:26:09.537Z,45.34
2018-07-16T08:26:35.041Z,45.53
2018-07-16T08:27:00.517Z,45.04
2018-07-16T08:27:26.021Z,45.43
2018-07-16T08:27:51.506Z,45.53
2018-07-16T08:28:17.108Z,45.43
2018-07-16T08:28:42.542Z,45.14
2018-07-16T08:29:08.077Z,45.34
2018-07-16T08:29:33.549Z,45.34
2018-07-16T08:29:59.036Z,44.87
2018-07-16T08:30:24.535Z,45.17
2018-07-16T08:30:50.017Z,44.58
2018-07-16T08:31:15.529Z,44.97
2018-07-16T08:31:41.039Z,44.78
2018-07-16T08:32:06.560Z,45.36
2018-07-16T08:32:32.030Z,45.07
2018-07-16T08:32:57.516Z,45.26
2018-07-16T08:33:22.984Z,45.26
2018-07-16T08:33:48.454Z,45.65
2018-07-16T08:34:13.966Z,44.48
2018-07-16T08:34:39.441Z,44.19
2018-07-16T08:35:04.908Z,44.19
2018-07-16T08:35:30.434Z,44.09
2018-07-16T08:35:55.921Z,43.71
2018-07-16T08:36:21.442Z,43.61
2018-07-16T08:36:46.967Z,43.71
2018-07-16T08:37:12.470Z,43.9
2018-07-16T08:37:37.993Z,44.38
2018-07-16T08:38:03.510Z,44.48
2018-07-16T08:38:28.994Z,44.19
2018-07-16T08:38:54.464Z,44.09
2018-07-16T08:39:19.966Z,44.09
2018-07-16T08:39:45.461Z,43.71
2018-07-16T08:40:10.934Z,43.8
2018-07-16T08:40:36.447Z,43.41
2018-07-16T08:41:01.896Z,44.09
2018-07-16T08:41:27.365Z,43.61
2018-07-16T08:41:52.872Z,44.12
2018-07-16T08:42:18.417Z,44.02
2018-07-16T08:42:43.882Z,43.54
2018-07-16T08:43:09.393Z,43.05
2018-07-16T08:43:34.918Z,43.15
2018-07-16T08:44:00.428Z,42.15
2018-07-16T08:44:25.945Z,42.95
2018-07-16T08:44:51.438Z,43.22
2018-07-16T08:45:16.931Z,42.95
2018-07-16T08:45:42.408Z,43.63
2018-07-16T08:46:07.977Z,43.54
2018-07-16T08:46:33.411Z,43.15
2018-07-16T08:46:59.159Z,43.73
2018-07-16T08:47:24.669Z,43.73
2018-07-16T08:47:50.174Z,42.85
2018-07-16T08:48:15.708Z,42.95
2018-07-16T08:48:41.228Z,42.46
2018-07-16T08:49:06.726Z,42.85
2018-07-16T08:49:32.204Z,43.05
2018-07-16T08:49:57.714Z,42.95
2018-07-16T08:50:23.202Z,42.27
2018-07-16T08:50:48.697Z,42.87
2018-07-16T08:51:14.256Z,42.85
2018-07-16T08:51:39.773Z,42.36
2018-07-16T08:52:05.243Z,42.85
2018-07-16T08:52:30.775Z,41.9
2018-07-16T08:52:56.314Z,41.1
2018-07-16T08:53:54.858Z,41.78
2018-07-16T08:54:20.354Z,41.49
2018-07-16T08:54:45.843Z,41.22
2018-07-16T08:55:11.319Z,41.69
2018-07-16T08:55:36.829Z,41.98
2018-07-16T08:56:02.341Z,41.69
2018-07-16T08:56:27.814Z,42.46
2018-07-16T08:56:53.324Z,42.1
2018-07-16T08:57:18.787Z,42.18
2018-07-16T08:57:44.278Z,42.36
2018-07-16T08:58:09.746Z,42.08
2018-07-16T08:58:35.288Z,42.66
2018-07-16T08:59:00.771Z,42.19
2018-07-16T08:59:26.306Z,42.66
2018-07-16T08:59:51.805Z,42.68
2018-07-16T09:00:17.282Z,42.68
2018-07-16T09:00:42.772Z,42.78
2018-07-16T09:01:08.280Z,42.49
2018-07-16T09:02:17.001Z,41.03
2018-07-16T09:02:42.495Z,41.13
2018-07-16T09:03:07.989Z,40.64
2018-07-16T09:03:33.475Z,41.03
2018-07-16T09:03:58.983Z,40.93
2018-07-16T09:04:24.478Z,41.22
2018-07-16T09:04:50.000Z,40.25
2018-07-16T09:05:15.516Z,40.44
2018-07-16T09:05:40.976Z,40.23
2018-07-16T09:06:06.526Z,40.62
2018-07-16T09:06:32.063Z,41.01
2018-07-16T09:06:57.550Z,40.83
2018-07-16T09:07:23.040Z,41.2
2018-07-16T09:07:48.541Z,41.01
2018-07-16T09:08:14.012Z,40.91
2018-07-16T09:08:39.486Z,41.39
2018-07-16T09:09:04.996Z,41.69
2018-07-16T09:09:30.502Z,41.78
2018-07-16T09:09:56.003Z,42.66
2018-07-16T09:10:21.538Z,41.1
2018-07-16T09:10:47.019Z,41.3
2018-07-16T09:11:12.545Z,41.49
2018-07-16T09:11:38.052Z,41.49
2018-07-16T09:12:03.538Z,41.49
2018-07-16T09:12:29.055Z,41.9
2018-07-16T09:12:54.567Z,42.19
2018-07-16T09:13:20.101Z,42.49
2018-07-16T09:13:45.600Z,41.13
2018-07-16T09:14:11.067Z,41.22
2018-07-16T09:14:36.577Z,41.1
2018-07-16T09:15:02.069Z,40.91
2018-07-16T09:15:27.563Z,41.32
2018-07-16T09:15:53.066Z,41.22
2018-07-16T09:16:18.559Z,40.42
2018-07-16T09:16:44.160Z,40.52
2018-07-16T09:17:09.543Z,40.33
2018-07-16T09:17:35.072Z,40.23
2018-07-16T09:18:00.564Z,40.42
2018-07-16T09:18:26.032Z,40.42
2018-07-16T09:18:51.505Z,40.72
2018-07-16T09:19:17.045Z,40.81
2018-07-16T09:19:42.487Z,41.2
2018-07-16T09:20:07.979Z,41.39
2018-07-16T09:20:33.439Z,41.2
2018-07-16T09:20:58.920Z,41.39
2018-07-16T09:21:24.405Z,41.49
2018-07-16T09:21:49.878Z,41.49
2018-07-16T09:22:15.396Z,41.69
2018-07-16T09:22:40.889Z,41.3
2018-07-16T09:23:06.419Z,40.13
2018-07-16T09:23:31.941Z,40.91
2018-07-16T09:23:57.416Z,40.52
2018-07-16T09:24:22.909Z,40.81
2018-07-16T09:24:48.406Z,40.13
2018-07-16T09:25:13.896Z,40.42
2018-07-16T09:25:39.456Z,40.33
2018-07-16T09:26:04.877Z,40.33
2018-07-16T09:26:30.405Z,40.13
2018-07-16T09:26:55.904Z,40.91
2018-07-16T09:27:21.393Z,41.3
2018-07-16T09:27:46.943Z,41.1
2018-07-16T09:28:12.460Z,41.01
2018-07-16T09:28:37.974Z,40.62
2018-07-16T09:29:03.464Z,40.91
2018-07-16T09:29:28.952Z,41.3
2018-07-16T09:29:54.446Z,40.23
2018-07-16T09:30:19.942Z,40.52
2018-07-16T09:30:45.484Z,40.33
2018-07-16T09:31:11.097Z,40.13
2018-07-16T09:31:36.845Z,40.23
2018-07-16T09:32:02.340Z,40.13
2018-07-16T09:32:27.836Z,40.52
2018-07-16T09:32:53.320Z,40.33
2018-07-16T09:33:18.810Z,39.75
2018-07-16T09:33:44.321Z,39.45
2018-07-16T09:34:09.805Z,40.42
2018-07-16T09:34:35.307Z,40.42
2018-07-16T09:35:00.809Z,40.62
2018-07-16T09:35:26.308Z,41.2
2018-07-16T09:35:51.808Z,40.81
2018-07-16T09:36:17.326Z,41.3
2018-07-16T09:36:42.816Z,41.32
2018-07-16T09:37:08.330Z,41.42
2018-07-16T09:37:33.790Z,41.03
2018-07-16T09:37:59.284Z,41.03
2018-07-16T09:38:24.775Z,40.95
2018-07-16T09:38:50.331Z,41.22
2018-07-16T09:39:15.816Z,40.17
2018-07-16T09:39:41.289Z,40.17
2018-07-16T09:40:06.765Z,39.59
2018-07-16T09:40:32.258Z,39.39
2018-07-16T09:40:57.771Z,39.98
2018-07-16T09:41:23.269Z,39.78
2018-07-16T09:41:48.763Z,39.49
2018-07-16T09:42:14.263Z,39
2018-07-16T09:42:39.734Z,39.49
2018-07-16T09:43:05.291Z,39.39
2018-07-16T09:43:30.695Z,39.39
2018-07-16T09:43:56.182Z,39.39
2018-07-16T09:44:21.734Z,39.39